Time;durP1;ratioP1;P1;durP2;ratioP2;P2;SDS_P1;SDS_P2;PMS_P1;PMS_P2;Temp;Humidity;BMP_temperature;BMP_pressure;BME280_temperature;BME280_humidity;BME280_pressure;Samples;Min_cycle;Max_cycle;Signal;HPM_P1;HPM_P2
2021/07/18 00:02:13;;;;;;;5.35;3.45;;;20.60;99.90;;;;;;5019739;28;20073;-72
2021/07/18 00:04:39;;;;;;;6.93;3.28;;;20.60;99.90;;;;;;5018467;28;20474;-72
2021/07/18 00:07:04;;;;;;;5.50;3.40;;;20.60;99.90;;;;;;5020623;28;20030;-73
2021/07/18 00:09:30;;;;;;;4.43;3.50;;;20.60;99.90;;;;;;5020419;28;20064;-72
2021/07/18 00:11:57;;;;;;;7.75;3.42;;;20.50;99.90;;;;;;5018178;28;20025;-72
2021/07/18 00:14:22;;;;;;;7.28;3.47;;;20.40;99.90;;;;;;5018996;28;20022;-72
2021/07/18 00:16:48;;;;;;;5.78;3.95;;;20.40;99.90;;;;;;5020485;28;20030;-72
2021/07/18 00:19:14;;;;;;;6.95;3.75;;;20.40;99.90;;;;;;5020401;28;20014;-72
2021/07/18 00:21:40;;;;;;;7.25;3.88;;;20.40;99.90;;;;;;5023507;28;20477;-72
2021/07/18 00:24:05;;;;;;;7.15;4.10;;;20.40;99.90;;;;;;5021651;28;20030;-72
2021/07/18 00:26:31;;;;;;;7.40;4.03;;;20.30;99.90;;;;;;5020283;28;20029;-73
2021/07/18 00:28:57;;;;;;;4.25;3.63;;;20.30;99.90;;;;;;5020213;28;20397;-71
2021/07/18 00:31:23;;;;;;;6.38;3.85;;;20.30;99.90;;;;;;5022360;28;20025;-72
2021/07/18 00:33:48;;;;;;;7.30;4.20;;;20.30;99.90;;;;;;5019645;28;20516;-72
2021/07/18 00:36:14;;;;;;;4.70;3.88;;;20.30;99.90;;;;;;5021590;28;20458;-72
2021/07/18 00:38:40;;;;;;;6.30;4.45;;;20.20;99.90;;;;;;5020261;28;20022;-71
2021/07/18 00:41:05;;;;;;;8.50;4.45;;;20.20;99.90;;;;;;5023014;28;20025;-72
2021/07/18 00:43:32;;;;;;;11.40;5.93;;;20.20;99.90;;;;;;5022037;28;20382;-71
2021/07/18 00:45:59;;;;;;;9.70;4.85;;;20.10;99.90;;;;;;5019348;28;20029;-72
2021/07/18 00:48:27;;;;;;;7.00;5.22;;;20.10;99.90;;;;;;5014732;28;20057;-72
2021/07/18 00:50:54;;;;;;;8.23;5.20;;;20.10;99.90;;;;;;5020257;28;20632;-71
2021/07/18 00:53:19;;;;;;;7.70;5.07;;;20.10;99.90;;;;;;5018784;28;20092;-71
2021/07/18 00:55:46;;;;;;;9.15;5.43;;;20.10;99.90;;;;;;5021769;28;20017;-72
2021/07/18 00:58:13;;;;;;;7.28;5.70;;;20.10;99.90;;;;;;5018278;28;20025;-72
2021/07/18 01:00:39;;;;;;;6.78;5.10;;;20.00;99.90;;;;;;5022796;28;20028;-71
2021/07/18 01:03:05;;;;;;;9.48;5.53;;;20.00;99.90;;;;;;5017984;28;20397;-71
2021/07/18 01:05:31;;;;;;;8.30;5.50;;;19.90;99.90;;;;;;5020654;28;20024;-72
2021/07/18 01:07:56;;;;;;;7.38;5.35;;;19.90;99.90;;;;;;5021389;28;20282;-71
2021/07/18 01:10:22;;;;;;;5.78;5.05;;;19.90;99.90;;;;;;5024420;28;20025;-71
2021/07/18 01:12:48;;;;;;;7.00;5.22;;;19.90;99.90;;;;;;5024367;28;20037;-72
2021/07/18 01:15:14;;;;;;;9.63;6.13;;;19.80;99.90;;;;;;5023535;28;20382;-72
2021/07/18 01:17:40;;;;;;;6.75;5.10;;;19.80;99.90;;;;;;5022742;28;20034;-71
2021/07/18 01:20:11;;;;;;;12.50;5.63;;;19.80;99.90;;;;;;5023444;28;20022;-71
2021/07/18 01:22:38;;;;;;;8.95;6.13;;;19.80;99.90;;;;;;5019985;28;20029;-71
2021/07/18 01:25:06;;;;;;;8.55;5.55;;;19.80;99.90;;;;;;5017418;28;20421;-72
2021/07/18 01:27:33;;;;;;;7.88;5.65;;;19.70;99.90;;;;;;5029950;28;20500;-71
2021/07/18 01:30:00;;;;;;;12.07;7.43;;;19.70;99.90;;;;;;5028569;28;20044;-72
2021/07/18 01:32:25;;;;;;;8.15;6.40;;;19.60;99.90;;;;;;5024152;28;20490;-72
2021/07/18 01:34:51;;;;;;;9.77;6.55;;;19.70;99.90;;;;;;5036063;28;20112;-72
2021/07/18 01:37:17;;;;;;;8.02;6.97;;;19.60;99.90;;;;;;5022317;28;20025;-71
2021/07/18 01:39:44;;;;;;;6.65;5.97;;;19.60;99.90;;;;;;5026027;28;20017;-71
2021/07/18 01:42:10;;;;;;;10.48;6.70;;;19.60;99.90;;;;;;5041981;28;20022;-72
2021/07/18 01:44:36;;;;;;;9.70;6.65;;;19.60;99.90;;;;;;5031230;28;20413;-71
2021/07/18 01:47:02;;;;;;;8.85;7.15;;;19.60;99.90;;;;;;5033550;28;20030;-71
2021/07/18 01:49:28;;;;;;;11.55;7.10;;;19.60;99.90;;;;;;5033111;28;20030;-72
2021/07/18 01:51:54;;;;;;;9.82;7.63;;;19.50;99.90;;;;;;5027648;28;20032;-72
2021/07/18 01:54:20;;;;;;;12.00;6.70;;;19.50;99.90;;;;;;5030292;28;20018;-71
2021/07/18 01:56:45;;;;;;;10.07;6.90;;;19.50;99.90;;;;;;5033598;28;20024;-71
2021/07/18 01:59:13;;;;;;;10.55;7.20;;;19.40;99.90;;;;;;5032933;28;20026;-72
2021/07/18 02:01:38;;;;;;;10.85;6.90;;;19.40;99.90;;;;;;5032968;28;20036;-71
2021/07/18 02:04:04;;;;;;;9.05;6.85;;;19.40;99.90;;;;;;5027653;28;20112;-71
2021/07/18 02:06:31;;;;;;;12.35;6.60;;;19.40;99.90;;;;;;5026968;28;20539;-71
2021/07/18 02:08:59;;;;;;;11.60;7.00;;;19.40;99.90;;;;;;5029132;28;20053;-71
2021/07/18 02:11:25;;;;;;;12.43;6.55;;;19.30;99.90;;;;;;5031821;28;20018;-71
2021/07/18 02:13:53;;;;;;;8.45;6.75;;;19.30;99.90;;;;;;5026996;28;20063;-71
2021/07/18 02:16:20;;;;;;;10.30;6.30;;;19.30;99.90;;;;;;5031056;28;20021;-71
2021/07/18 02:18:47;;;;;;;14.20;6.78;;;19.30;99.90;;;;;;5033106;28;20022;-71
2021/07/18 02:21:13;;;;;;;8.80;6.90;;;19.30;99.90;;;;;;5032392;28;20022;-72
2021/07/18 02:23:39;;;;;;;10.32;7.15;;;19.30;99.90;;;;;;5028935;28;20022;-74
2021/07/18 02:26:05;;;;;;;15.52;7.55;;;19.20;99.90;;;;;;5029615;28;20500;-74
2021/07/18 02:28:31;;;;;;;10.48;7.53;;;19.20;99.90;;;;;;5025963;28;20045;-74
2021/07/18 02:30:57;;;;;;;11.55;7.00;;;19.20;99.90;;;;;;5030170;28;20021;-75
2021/07/18 02:33:23;;;;;;;12.13;7.50;;;19.20;99.90;;;;;;5031529;28;20427;-74
2021/07/18 02:35:49;;;;;;;10.85;7.20;;;19.10;99.90;;;;;;5032305;28;20029;-73
2021/07/18 02:38:15;;;;;;;10.20;7.90;;;19.10;99.90;;;;;;5023419;28;20706;-74
2021/07/18 02:40:41;;;;;;;11.55;7.63;;;19.10;99.90;;;;;;5032360;28;22435;-73
2021/07/18 02:43:07;;;;;;;9.80;7.47;;;19.10;99.90;;;;;;5030767;28;20032;-73
2021/07/18 02:45:33;;;;;;;11.82;7.78;;;19.10;99.90;;;;;;5032908;28;20021;-73
2021/07/18 02:47:59;;;;;;;10.80;7.38;;;19.00;99.90;;;;;;5027772;28;20374;-74
2021/07/18 02:50:27;;;;;;;9.10;7.50;;;19.00;99.90;;;;;;5030773;28;20108;-74
2021/07/18 02:52:54;;;;;;;11.77;6.93;;;19.00;99.90;;;;;;5031684;28;20024;-73
2021/07/18 02:55:20;;;;;;;10.52;7.20;;;19.00;99.90;;;;;;5027120;28;20036;-73
2021/07/18 02:57:45;;;;;;;13.20;7.30;;;18.90;99.90;;;;;;5033260;28;20021;-73
2021/07/18 03:00:14;;;;;;;10.00;7.15;;;18.90;99.90;;;;;;5028209;28;20486;-74
2021/07/18 03:02:42;;;;;;;10.25;7.43;;;18.90;99.90;;;;;;5024840;28;20073;-73
2021/07/18 03:05:10;;;;;;;13.55;7.85;;;18.90;99.90;;;;;;5030430;28;20053;-72
2021/07/18 03:07:37;;;;;;;12.95;8.48;;;18.90;99.90;;;;;;5030164;28;20068;-73
2021/07/18 03:10:04;;;;;;;15.10;8.25;;;18.80;99.90;;;;;;5033000;28;20017;-73
2021/07/18 03:12:31;;;;;;;17.67;9.05;;;18.80;99.90;;;;;;5033426;28;20025;-74
2021/07/18 03:15:02;;;;;;;10.23;7.90;;;18.80;99.90;;;;;;5031579;28;20022;-73
2021/07/18 03:17:27;;;;;;;11.43;7.85;;;18.80;99.90;;;;;;5027634;28;20462;-73
2021/07/18 03:19:53;;;;;;;11.23;7.95;;;18.80;99.90;;;;;;5032557;28;20037;-74
2021/07/18 03:22:20;;;;;;;13.15;8.15;;;18.80;99.90;;;;;;5033121;28;20105;-74
2021/07/18 03:24:46;;;;;;;10.43;8.05;;;18.80;99.90;;;;;;5029019;28;20026;-74
2021/07/18 03:27:12;;;;;;;11.02;7.45;;;18.70;99.90;;;;;;5032349;28;20079;-73
2021/07/18 03:29:37;;;;;;;10.50;9.07;;;18.80;99.90;;;;;;5032463;28;20485;-73
2021/07/18 03:32:04;;;;;;;14.25;7.95;;;18.80;99.90;;;;;;5026555;28;20028;-73
2021/07/18 03:34:30;;;;;;;13.80;8.35;;;18.70;99.90;;;;;;5030449;28;20021;-72
2021/07/18 03:36:55;;;;;;;10.75;6.75;;;18.70;99.90;;;;;;5030322;28;20108;-73
2021/07/18 03:39:21;;;;;;;10.55;8.02;;;18.70;99.90;;;;;;5025732;28;20104;-74
2021/07/18 03:41:47;;;;;;;11.93;7.68;;;18.70;99.90;;;;;;5031139;28;20100;-73
2021/07/18 03:44:13;;;;;;;12.40;8.30;;;18.60;99.90;;;;;;5027523;28;20032;-73
2021/07/18 03:46:38;;;;;;;11.88;8.10;;;18.60;99.90;;;;;;5031116;28;20026;-73
2021/07/18 03:49:04;;;;;;;10.52;8.35;;;18.60;99.90;;;;;;5026843;28;20496;-72
2021/07/18 03:51:30;;;;;;;14.82;9.63;;;18.60;99.90;;;;;;5028113;28;20029;-71
2021/07/18 03:53:56;;;;;;;13.77;8.40;;;18.60;99.90;;;;;;5031668;28;20033;-73
2021/07/18 03:56:22;;;;;;;9.45;8.15;;;18.50;99.90;;;;;;5027601;28;20458;-73
2021/07/18 03:58:51;;;;;;;13.18;9.63;;;18.60;99.90;;;;;;5025616;28;20413;-72
2021/07/18 04:01:17;;;;;;;15.98;9.60;;;18.50;99.90;;;;;;5031068;28;20017;-72
2021/07/18 04:03:46;;;;;;;13.05;8.00;;;18.50;99.90;;;;;;5023181;28;20026;-71
2021/07/18 04:06:13;;;;;;;15.82;7.93;;;18.50;99.90;;;;;;5031082;28;20027;-72
2021/07/18 04:08:39;;;;;;;17.25;9.73;;;18.50;99.90;;;;;;5031609;28;20084;-71
2021/07/18 04:11:04;;;;;;;11.80;9.18;;;18.50;99.90;;;;;;5022904;28;20025;-73
2021/07/18 04:13:30;;;;;;;13.82;9.38;;;18.50;99.90;;;;;;5029133;28;20112;-72
2021/07/18 04:15:55;;;;;;;13.75;9.30;;;18.50;99.90;;;;;;5029431;28;20523;-71
2021/07/18 04:18:21;;;;;;;10.50;8.45;;;18.50;99.90;;;;;;5031794;28;20033;-71
2021/07/18 04:20:47;;;;;;;14.02;9.73;;;18.40;99.90;;;;;;5030117;28;20381;-71
2021/07/18 04:23:14;;;;;;;10.70;8.85;;;18.40;99.90;;;;;;5031604;28;20056;-72
2021/07/18 04:25:39;;;;;;;11.48;9.00;;;18.40;99.90;;;;;;5030030;28;20017;-72
2021/07/18 04:28:05;;;;;;;10.80;9.38;;;18.40;99.90;;;;;;5023444;28;20044;-72
2021/07/18 04:30:31;;;;;;;18.23;10.73;;;18.40;99.90;;;;;;5026814;28;20030;-71
2021/07/18 04:32:56;;;;;;;12.45;8.88;;;18.40;99.90;;;;;;5026425;28;20034;-73
2021/07/18 04:35:23;;;;;;;12.85;9.25;;;18.40;99.90;;;;;;5031291;28;20025;-71
2021/07/18 04:37:48;;;;;;;14.93;9.98;;;18.40;99.90;;;;;;5031224;28;20033;-73
2021/07/18 04:40:14;;;;;;;14.43;9.90;;;18.40;99.90;;;;;;5026927;28;20029;-72
2021/07/18 04:42:40;;;;;;;17.55;10.13;;;18.40;99.90;;;;;;5026149;28;20469;-72
2021/07/18 04:45:07;;;;;;;14.35;9.68;;;18.40;99.90;;;;;;5034452;28;20021;-72
2021/07/18 04:47:32;;;;;;;14.18;10.07;;;18.40;99.90;;;;;;5034949;28;20025;-72
2021/07/18 04:49:58;;;;;;;14.57;10.85;;;18.40;99.90;;;;;;5030085;28;20040;-72
2021/07/18 04:52:24;;;;;;;19.75;11.90;;;18.50;99.90;;;;;;5029745;28;20026;-72
2021/07/18 04:54:50;;;;;;;15.20;11.15;;;18.40;99.90;;;;;;5035156;28;20021;-72
2021/07/18 04:57:15;;;;;;;18.30;11.77;;;18.50;99.90;;;;;;5035821;28;20021;-72
2021/07/18 04:59:41;;;;;;;16.20;11.18;;;18.50;99.90;;;;;;5035121;28;20524;-72
2021/07/18 05:02:06;;;;;;;17.90;11.43;;;18.50;99.90;;;;;;5034005;28;20025;-71
2021/07/18 05:04:32;;;;;;;20.05;13.40;;;18.50;99.90;;;;;;5034937;28;20033;-72
2021/07/18 05:06:57;;;;;;;18.25;12.32;;;18.50;99.90;;;;;;5029640;28;20033;-73
2021/07/18 05:09:23;;;;;;;16.92;13.32;;;18.50;99.90;;;;;;5032466;28;20473;-71
2021/07/18 05:11:49;;;;;;;23.50;13.70;;;18.50;99.90;;;;;;5034164;28;20025;-72
2021/07/18 05:14:14;;;;;;;17.33;12.98;;;18.50;99.90;;;;;;5028823;28;20071;-73
2021/07/18 05:16:40;;;;;;;24.15;14.68;;;18.60;99.90;;;;;;5027710;28;20093;-71
2021/07/18 05:19:05;;;;;;;20.13;12.73;;;18.60;99.90;;;;;;5030831;28;20103;-71
2021/07/18 05:21:31;;;;;;;19.58;13.40;;;18.60;99.90;;;;;;5034867;28;20104;-72
2021/07/18 05:23:56;;;;;;;18.80;13.20;;;18.60;99.90;;;;;;5034663;28;20539;-72
2021/07/18 05:26:22;;;;;;;19.77;13.80;;;18.70;99.90;;;;;;5031520;28;20028;-72
2021/07/18 05:28:48;;;;;;;20.25;15.10;;;18.70;99.90;;;;;;5032013;28;20041;-72
2021/07/18 05:31:14;;;;;;;20.73;14.23;;;18.70;99.90;;;;;;5034814;28;20469;-72
2021/07/18 05:33:39;;;;;;;19.63;13.88;;;18.70;99.90;;;;;;5034344;28;20025;-72
2021/07/18 05:36:13;;;;;;;23.50;15.73;;;18.70;99.90;;;;;;5034711;28;20096;-72
2021/07/18 05:38:39;;;;;;;20.67;14.95;;;18.70;99.90;;;;;;5033892;28;20021;-74
2021/07/18 05:41:05;;;;;;;24.00;16.00;;;18.80;99.90;;;;;;5034774;28;20028;-72
2021/07/18 05:43:31;;;;;;;28.42;16.50;;;18.80;99.90;;;;;;5033380;28;20024;-72
2021/07/18 05:45:57;;;;;;;22.00;16.23;;;18.80;99.90;;;;;;5028643;28;20029;-72
2021/07/18 05:48:25;;;;;;;26.15;17.35;;;18.80;99.90;;;;;;5032644;28;20029;-71
2021/07/18 05:50:52;;;;;;;24.85;16.40;;;18.80;99.90;;;;;;5030946;28;20029;-72
2021/07/18 05:53:17;;;;;;;23.88;15.65;;;18.80;99.90;;;;;;5032955;28;20049;-73
2021/07/18 05:55:43;;;;;;;24.48;15.32;;;18.80;99.90;;;;;;5033717;28;20072;-72
2021/07/18 05:58:09;;;;;;;24.67;17.75;;;18.90;99.90;;;;;;5032664;28;20173;-73
2021/07/18 06:00:34;;;;;;;27.10;18.73;;;18.90;99.90;;;;;;5029782;28;20034;-72
2021/07/18 06:03:00;;;;;;;24.48;17.45;;;19.00;99.90;;;;;;5030919;28;20025;-72
2021/07/18 06:05:26;;;;;;;32.42;18.30;;;19.00;99.90;;;;;;5033810;28;20063;-73
2021/07/18 06:07:51;;;;;;;24.38;15.60;;;19.00;99.90;;;;;;5033522;28;20034;-72
2021/07/18 06:10:17;;;;;;;23.00;14.88;;;19.10;99.90;;;;;;5033758;28;20382;-72
2021/07/18 06:12:43;;;;;;;28.75;18.20;;;19.10;99.90;;;;;;5028555;28;20040;-73
2021/07/18 06:15:09;;;;;;;30.15;17.13;;;19.10;99.90;;;;;;5032977;28;20021;-73
2021/07/18 06:17:35;;;;;;;21.05;15.85;;;19.10;99.90;;;;;;5028086;28;20113;-72
2021/07/18 06:20:07;;;;;;;27.95;17.58;;;19.10;99.90;;;;;;5021569;28;20379;-72
2021/07/18 06:22:32;;;;;;;22.17;15.77;;;19.20;99.90;;;;;;5026975;28;20029;-73
2021/07/18 06:24:58;;;;;;;20.30;15.57;;;19.20;99.90;;;;;;5030986;28;20098;-72
2021/07/18 06:27:23;;;;;;;17.40;12.13;;;19.30;99.90;;;;;;5027461;28;20552;-73
2021/07/18 06:29:49;;;;;;;19.23;13.68;;;19.30;99.90;;;;;;5033276;28;20029;-74
2021/07/18 06:32:14;;;;;;;19.08;13.05;;;19.40;99.90;;;;;;5033545;28;20043;-74
2021/07/18 06:34:40;;;;;;;19.88;12.02;;;19.50;99.90;;;;;;5032877;28;20392;-73
2021/07/18 06:37:06;;;;;;;16.35;12.32;;;19.50;99.90;;;;;;5031971;28;20033;-74
2021/07/18 06:39:31;;;;;;;18.55;12.27;;;19.60;99.90;;;;;;5028491;28;20036;-72
2021/07/18 06:41:57;;;;;;;16.63;12.60;;;19.50;99.90;;;;;;5033109;28;20022;-75
2021/07/18 06:44:23;;;;;;;21.27;12.30;;;19.60;99.90;;;;;;5032618;28;20485;-73
2021/07/18 06:46:48;;;;;;;13.35;9.90;;;19.60;99.90;;;;;;5028813;28;20029;-74
2021/07/18 06:49:14;;;;;;;15.68;10.13;;;19.70;99.90;;;;;;5032907;28;20113;-74
2021/07/18 06:51:39;;;;;;;13.65;8.90;;;19.70;99.90;;;;;;5033553;28;20458;-74
2021/07/18 06:54:05;;;;;;;12.93;8.40;;;19.80;99.90;;;;;;5033316;28;20116;-75
2021/07/18 06:56:31;;;;;;;15.82;9.15;;;19.90;99.90;;;;;;5032413;28;20454;-74
2021/07/18 06:58:57;;;;;;;13.38;8.68;;;20.00;99.90;;;;;;5026803;28;20076;-74
2021/07/18 07:01:23;;;;;;;8.48;7.35;;;20.10;99.90;;;;;;5030681;28;20478;-74
2021/07/18 07:03:48;;;;;;;10.98;8.05;;;20.20;99.90;;;;;;5033034;28;20028;-72
2021/07/18 07:06:14;;;;;;;12.45;7.32;;;20.30;99.90;;;;;;5030825;28;20028;-74
2021/07/18 07:08:40;;;;;;;9.23;6.70;;;20.40;99.90;;;;;;5032995;28;20042;-75
2021/07/18 07:11:05;;;;;;;11.23;7.75;;;20.60;99.90;;;;;;5032765;28;20120;-75
2021/07/18 07:13:31;;;;;;;10.07;6.53;;;20.60;99.90;;;;;;5032599;28;20103;-75
2021/07/18 07:15:58;;;;;;;10.30;6.43;;;20.70;99.90;;;;;;5027740;28;20022;-75
2021/07/18 07:18:24;;;;;;;9.38;6.25;;;20.90;99.90;;;;;;5031970;28;20021;-75
2021/07/18 07:20:49;;;;;;;9.02;5.53;;;21.00;99.90;;;;;;5032480;28;20017;-75
2021/07/18 07:23:15;;;;;;;5.72;4.93;;;21.10;99.90;;;;;;5031540;28;20018;-75
2021/07/18 07:25:40;;;;;;;7.00;5.47;;;21.20;99.90;;;;;;5031626;28;20071;-75
2021/07/18 07:28:06;;;;;;;9.00;4.88;;;21.30;99.90;;;;;;5026700;28;20482;-75
2021/07/18 07:30:32;;;;;;;7.00;4.85;;;21.40;99.90;;;;;;5032104;28;20025;-75
2021/07/18 07:32:58;;;;;;;10.23;4.28;;;21.50;99.90;;;;;;5032124;28;20030;-75
2021/07/18 07:35:23;;;;;;;7.00;4.82;;;21.50;99.90;;;;;;5031731;28;20018;-75
2021/07/18 07:37:49;;;;;;;5.82;5.22;;;21.60;99.90;;;;;;5026160;28;20033;-74
2021/07/18 07:40:17;;;;;;;8.50;4.75;;;21.60;99.90;;;;;;5030503;28;20044;-75
2021/07/18 07:42:43;;;;;;;7.43;4.07;;;21.80;99.90;;;;;;5032592;28;20385;-76
2021/07/18 07:45:10;;;;;;;5.35;3.53;;;21.90;99.90;;;;;;5029591;28;20024;-75
2021/07/18 07:47:38;;;;;;;9.88;3.35;;;21.90;99.90;;;;;;5031893;28;20116;-76
2021/07/18 07:50:06;;;;;;;6.10;3.00;;;22.00;99.90;;;;;;5026699;28;20436;-74
2021/07/18 07:52:32;;;;;;;3.08;2.53;;;22.20;99.90;;;;;;5030367;28;20029;-74
2021/07/18 07:54:58;;;;;;;4.25;2.95;;;22.20;99.90;;;;;;5031081;28;20021;-76
2021/07/18 07:57:24;;;;;;;5.55;3.42;;;22.30;99.90;;;;;;5028222;28;20029;-76
2021/07/18 07:59:50;;;;;;;5.40;3.10;;;22.40;99.90;;;;;;5029476;28;20068;-76
2021/07/18 08:02:16;;;;;;;5.90;3.30;;;22.40;99.90;;;;;;5022727;28;20108;-75
2021/07/18 08:04:42;;;;;;;4.75;2.70;;;22.40;99.90;;;;;;5040489;28;20084;-76
2021/07/18 08:07:07;;;;;;;6.20;2.63;;;22.50;99.90;;;;;;5030330;28;20421;-76
2021/07/18 08:09:33;;;;;;;3.83;2.45;;;22.60;99.90;;;;;;5032503;28;20017;-76
2021/07/18 08:11:59;;;;;;;3.03;2.40;;;22.60;99.90;;;;;;5030428;28;20029;-76
2021/07/18 08:14:25;;;;;;;8.82;2.58;;;22.80;99.90;;;;;;5022734;28;20080;-75
2021/07/18 08:16:50;;;;;;;3.10;2.15;;;23.00;99.90;;;;;;5031656;28;20021;-75
2021/07/18 08:19:16;;;;;;;2.28;2.08;;;23.00;99.90;;;;;;5030679;28;20044;-75
2021/07/18 08:21:42;;;;;;;4.13;2.35;;;23.00;99.90;;;;;;5025550;28;20032;-76
2021/07/18 08:24:12;;;;;;;3.28;2.13;;;23.00;99.90;;;;;;5021235;28;20030;-75
2021/07/18 08:26:37;;;;;;;4.22;2.35;;;23.10;99.90;;;;;;5028588;28;20029;-75
2021/07/18 08:29:04;;;;;;;3.85;2.40;;;23.20;99.90;;;;;;5024231;28;20091;-73
2021/07/18 08:31:29;;;;;;;2.72;2.42;;;23.20;99.90;;;;;;5029743;28;20088;-76
2021/07/18 08:33:55;;;;;;;6.07;2.28;;;23.30;99.90;;;;;;5029536;28;20108;-74
2021/07/18 08:36:22;;;;;;;3.83;2.55;;;23.40;99.90;;;;;;5027870;28;20097;-74
2021/07/18 08:38:48;;;;;;;5.20;2.30;;;23.40;99.90;;;;;;5031813;28;20063;-74
2021/07/18 08:41:14;;;;;;;5.10;2.25;;;23.50;99.90;;;;;;5031151;28;20431;-73
2021/07/18 08:43:40;;;;;;;6.57;2.65;;;23.50;99.90;;;;;;5025209;28;20401;-73
2021/07/18 08:46:05;;;;;;;2.78;1.98;;;23.60;99.90;;;;;;5030811;28;20021;-75
2021/07/18 08:48:31;;;;;;;3.17;2.08;;;23.70;99.90;;;;;;5031245;28;20076;-73
2021/07/18 08:50:57;;;;;;;3.90;2.05;;;23.80;99.90;;;;;;5029676;28;20027;-73
2021/07/18 08:53:27;;;;;;;3.38;1.85;;;23.80;99.90;;;;;;5026879;28;20421;-74
2021/07/18 08:55:53;;;;;;;4.00;2.20;;;23.90;99.90;;;;;;5029473;28;20026;-75
2021/07/18 08:58:19;;;;;;;4.22;2.15;;;23.90;99.90;;;;;;5030372;28;20029;-72
2021/07/18 09:00:45;;;;;;;6.32;2.65;;;23.90;99.90;;;;;;5031890;28;20021;-73
2021/07/18 09:03:17;;;;;;;2.70;2.08;;;24.00;99.90;;;;;;5026146;28;20024;-73
2021/07/18 09:05:44;;;;;;;3.53;1.85;;;24.20;99.90;;;;;;5029648;28;20105;-73
2021/07/18 09:08:19;;;;;;;3.67;2.30;;;24.40;99.90;;;;;;5031582;28;20474;-74
2021/07/18 09:10:47;;;;;;;3.40;2.20;;;24.50;99.90;;;;;;5030299;28;20028;-73
2021/07/18 09:13:13;;;;;;;2.88;1.85;;;24.50;99.90;;;;;;5031179;28;20025;-73
2021/07/18 09:15:48;;;;;;;3.58;2.42;;;24.60;99.90;;;;;;5031272;28;20862;-74
2021/07/18 09:18:25;;;;;;;4.22;2.67;;;24.70;99.90;;;;;;5031654;28;20030;-72
2021/07/18 09:20:53;;;;;;;7.32;2.03;;;24.80;99.90;;;;;;5031206;28;20030;-73
2021/07/18 09:23:24;;;;;;;4.35;2.35;;;24.80;99.90;;;;;;5030956;28;20083;-72
2021/07/18 09:25:50;;;;;;;3.95;2.65;;;25.00;99.90;;;;;;5031256;28;20444;-75
2021/07/18 09:28:20;;;;;;;2.38;2.17;;;25.20;99.90;;;;;;5027543;28;20501;-74
2021/07/18 09:30:47;;;;;;;4.35;2.13;;;25.30;99.90;;;;;;5026016;28;20025;-74
2021/07/18 09:33:27;;;;;;;3.75;2.60;;;25.40;99.90;;;;;;5032401;28;20021;-74
2021/07/18 09:36:13;;;;;;;2.72;2.33;;;25.60;99.90;;;;;;5030467;28;20405;-74
2021/07/18 09:38:40;;;;;;;3.00;2.30;;;25.80;99.90;;;;;;5027224;28;20034;-75
2021/07/18 09:41:07;;;;;;;2.28;1.90;;;25.90;99.90;;;;;;5033290;28;20020;-75
2021/07/18 09:43:32;;;;;;;2.55;2.00;;;26.00;99.90;;;;;;5029477;28;20080;-75
2021/07/18 09:46:00;;;;;;;2.28;2.03;;;26.10;99.90;;;;;;5034047;28;20029;-73
2021/07/18 09:48:44;;;;;;;6.57;2.33;;;26.20;99.90;;;;;;5024325;28;20038;-75
2021/07/18 09:51:12;;;;;;;6.05;2.55;;;26.20;99.90;;;;;;5030004;28;20021;-75
2021/07/18 09:53:39;;;;;;;4.40;2.47;;;26.40;99.90;;;;;;5032298;28;20023;-75
2021/07/18 09:56:10;;;;;;;6.10;2.75;;;26.50;99.90;;;;;;5033134;28;20496;-75
2021/07/18 09:58:37;;;;;;;4.20;2.30;;;26.70;99.90;;;;;;5030024;28;20041;-75
2021/07/18 10:01:06;;;;;;;3.42;2.67;;;26.80;99.90;;;;;;5025562;28;20029;-73
2021/07/18 10:03:32;;;;;;;5.43;2.80;;;27.00;99.90;;;;;;5031552;28;20465;-75
2021/07/18 10:06:09;;;;;;;2.58;2.38;;;27.10;99.90;;;;;;5030606;28;20025;-75
2021/07/18 10:08:37;;;;;;;3.00;2.35;;;27.10;99.90;;;;;;5025647;28;20096;-75
2021/07/18 10:11:04;;;;;;;2.85;2.60;;;27.20;99.90;;;;;;5032349;28;20478;-75
2021/07/18 10:13:30;;;;;;;3.33;2.40;;;27.40;99.90;;;;;;5031694;28;20044;-75
2021/07/18 10:15:56;;;;;;;3.15;2.40;;;27.50;99.90;;;;;;5035231;28;20370;-75
2021/07/18 10:18:22;;;;;;;4.72;2.85;;;27.50;99.90;;;;;;5030439;28;20470;-73
2021/07/18 10:20:47;;;;;;;3.28;2.80;;;27.50;99.90;;;;;;5028363;28;20079;-75
2021/07/18 10:23:16;;;;;;;8.60;2.65;;;27.40;99.90;;;;;;5026238;28;20433;-75
2021/07/18 10:25:42;;;;;;;5.78;2.65;;;27.60;99.90;;;;;;5026870;28;20084;-74
2021/07/18 10:28:10;;;;;;;2.75;2.42;;;27.60;99.90;;;;;;5027623;28;20025;-74
2021/07/18 10:30:36;;;;;;;6.72;2.90;;;27.60;99.90;;;;;;5028723;28;20025;-75
2021/07/18 10:33:02;;;;;;;3.72;2.70;;;27.60;99.90;;;;;;5004222;28;20029;-75
2021/07/18 10:35:30;;;;;;;4.07;2.47;;;27.80;99.90;;;;;;5031840;28;20105;-75
2021/07/18 10:38:23;;;;;;;5.57;2.80;;;27.90;99.90;;;;;;5032259;28;20028;-75
2021/07/18 10:40:54;;;;;;;5.25;3.25;;;28.10;99.90;;;;;;5026138;28;20416;-73
2021/07/18 10:43:40;;;;;;;4.95;2.75;;;28.10;99.90;;;;;;5031814;28;20489;-74
2021/07/18 10:46:11;;;;;;;6.15;2.95;;;28.10;99.90;;;;;;5027985;28;20037;-72
2021/07/18 10:48:52;;;;;;;4.65;2.63;;;28.20;99.90;;;;;;5026850;28;20135;-73
2021/07/18 10:51:34;;;;;;;5.97;2.57;;;28.30;99.90;;;;;;5031049;28;20025;-74
2021/07/18 10:54:19;;;;;;;7.30;2.87;;;28.40;99.90;;;;;;5028571;28;20156;-74
2021/07/18 10:56:48;;;;;;;2.80;2.30;;;28.40;99.90;;;;;;5030387;28;20056;-74
2021/07/18 10:59:35;;;;;;;4.65;2.63;;;28.60;99.90;;;;;;5029669;28;20025;-73
2021/07/18 11:02:19;;;;;;;4.50;3.20;;;28.60;99.90;;;;;;5017266;28;20757;-71
2021/07/18 11:04:45;;;;;;;3.42;3.13;;;28.70;99.90;;;;;;5027677;28;20045;-73
2021/07/18 11:07:38;;;;;;;2.90;2.60;;;28.60;99.90;;;;;;5029403;28;20061;-75
2021/07/18 11:10:18;;;;;;;4.72;2.80;;;28.80;99.90;;;;;;5023376;28;20033;-75
2021/07/18 11:12:58;;;;;;;4.65;2.78;;;28.90;99.90;;;;;;5047831;28;20037;-75
2021/07/18 11:15:35;;;;;;;4.95;3.17;;;28.90;99.90;;;;;;5030114;28;20030;-75
2021/07/18 11:18:12;;;;;;;4.70;3.15;;;29.00;99.90;;;;;;5026194;28;20032;-72
2021/07/18 11:20:40;;;;;;;4.38;2.65;;;29.10;99.90;;;;;;5029703;28;20029;-76
2021/07/18 11:23:08;;;;;;;3.45;3.00;;;29.20;99.90;;;;;;5029876;28;20091;-76
2021/07/18 11:25:46;;;;;;;3.92;2.75;;;29.20;99.90;;;;;;5031653;28;20021;-73
2021/07/18 11:28:31;;;;;;;6.13;2.70;;;29.20;99.90;;;;;;5029920;28;20038;-76
2021/07/18 11:33:54;;;;;;;3.97;2.63;;;29.50;99.90;;;;;;5022619;28;20069;-73
2021/07/18 11:36:31;;;;;;;6.43;3.17;;;29.50;99.90;;;;;;5028613;28;20029;-75
2021/07/18 11:39:12;;;;;;;2.63;2.42;;;29.40;99.90;;;;;;5030939;28;20026;-74
2021/07/18 11:41:38;;;;;;;5.00;3.20;;;29.50;99.90;;;;;;5029763;28;20022;-73
2021/07/18 11:44:04;;;;;;;4.03;2.90;;;29.50;99.90;;;;;;5028206;28;20079;-73
2021/07/18 11:46:33;;;;;;;3.28;2.80;;;29.50;99.90;;;;;;5030332;28;20072;-73
2021/07/18 11:49:01;;;;;;;7.10;3.65;;;29.50;99.90;;;;;;5027806;28;20094;-76
2021/07/18 11:51:29;;;;;;;3.55;3.22;;;29.60;99.90;;;;;;5024054;28;20056;-76
2021/07/18 11:53:59;;;;;;;4.75;2.97;;;29.70;99.90;;;;;;5029108;28;20021;-76
2021/07/18 11:56:25;;;;;;;3.05;2.83;;;29.90;99.90;;;;;;5030855;28;20132;-73
2021/07/18 11:58:52;;;;;;;3.75;3.15;;;29.80;99.90;;;;;;5031123;28;20026;-75
2021/07/18 12:01:26;;;;;;;7.72;3.40;;;29.50;99.90;;;;;;5023951;28;20013;-76
2021/07/18 12:03:52;;;;;;;4.53;3.40;;;29.10;99.90;;;;;;5027209;28;20072;-75
2021/07/18 12:06:23;;;;;;;3.47;3.17;;;29.00;99.90;;;;;;5028242;28;20421;-75
2021/07/18 12:08:49;;;;;;;5.32;3.35;;;29.30;99.90;;;;;;5027988;28;20033;-73
2021/07/18 12:11:32;;;;;;;5.05;3.33;;;29.50;99.90;;;;;;5029030;28;20119;-72
2021/07/18 12:13:59;;;;;;;3.33;2.97;;;29.60;99.90;;;;;;5025565;28;20045;-73
2021/07/18 12:16:26;;;;;;;3.40;3.03;;;29.70;99.90;;;;;;5031177;28;20384;-73
2021/07/18 12:18:53;;;;;;;4.35;3.40;;;29.70;99.90;;;;;;5028904;28;20039;-73
2021/07/18 12:21:20;;;;;;;3.70;2.60;;;29.70;99.90;;;;;;5028354;28;20017;-73
2021/07/18 12:24:21;;;;;;;4.07;3.40;;;29.80;99.90;;;;;;5029144;28;20039;-72
2021/07/18 12:26:48;;;;;;;5.07;3.83;;;29.90;99.90;;;;;;5028723;28;20504;-73
2021/07/18 12:29:14;;;;;;;3.95;2.63;;;30.00;99.90;;;;;;5025846;28;20029;-71
2021/07/18 12:31:43;;;;;;;4.30;3.10;;;29.80;99.90;;;;;;5029233;28;20025;-73
2021/07/18 12:34:09;;;;;;;4.45;3.40;;;29.90;99.90;;;;;;5027834;28;20025;-72
2021/07/18 12:36:53;;;;;;;6.20;3.40;;;29.90;99.90;;;;;;5028689;28;20056;-72
2021/07/18 12:39:19;;;;;;;3.25;3.05;;;29.90;99.90;;;;;;5025849;28;20030;-72
2021/07/18 12:41:46;;;;;;;3.90;3.22;;;29.90;99.90;;;;;;5029143;28;20488;-71
2021/07/18 12:44:13;;;;;;;4.72;3.10;;;29.90;99.90;;;;;;5029653;28;20030;-72
2021/07/18 12:46:38;;;;;;;4.88;3.28;;;30.00;99.90;;;;;;5030191;28;20026;-71